Terminal Aerodrome Forecast
Issued by NWS Spokane, WA

Home | Current Version | Previous Version | Text Only | Print | Product List | Glossary On
Versions: 1 2 3 4 5 6 7 8 9 10 11 12 13 14 15 16 17 18 19 20 21 22 23 24 25 26 27 28 29 30 31 32 33 34 35 36 37 38 39 40 41 42 43 44 45 46 47 48 49 50
000
FTUS46 KOTX 190520
TAFGEG
TAF
KGEG 190520Z 1906/2006 14005KT P6SM BKN200
     FM191800 20012G22KT P6SM SCT120 BKN200
     FM200400 19013G18KT 6SM -RA OVC060 WS020/21048KT=

USA.gov is the U.S. government's official web portal to all federal, state and local government web resources and services.